createdAt,value
2018-02-02T08:06:16.005Z,4.80
2018-02-02T08:08:43.546Z,6.43
2018-02-02T08:11:11.054Z,5.90
2018-02-02T08:13:39.334Z,5.60
2018-02-02T08:16:06.919Z,5.72
2018-02-02T08:18:34.438Z,4.80
2018-02-02T08:21:02.739Z,4.87
2018-02-02T08:23:30.253Z,4.22
2018-02-02T08:25:57.866Z,4.65
2018-02-02T08:28:25.376Z,4.10
2018-02-02T08:30:52.914Z,4.43
2018-02-02T08:33:20.431Z,4.43
2018-02-02T08:35:47.970Z,4.70
2018-02-02T08:38:16.249Z,4.12
2018-02-02T08:40:44.585Z,4.70
2018-02-02T08:43:12.086Z,4.12
2018-02-02T08:45:40.393Z,5.20
2018-02-02T08:48:07.919Z,7.40
2018-02-02T08:50:35.437Z,6.97
2018-02-02T08:53:02.972Z,6.95
2018-02-02T08:55:30.549Z,3.85
2018-02-02T08:57:58.077Z,4.90
2018-02-02T09:00:26.361Z,4.35
2018-02-02T09:02:53.945Z,7.03
2018-02-02T09:05:21.456Z,3.72
2018-02-02T09:07:48.994Z,5.68
2018-02-02T09:10:16.513Z,5.15
2018-02-02T09:12:44.055Z,4.53
2018-02-02T09:15:12.341Z,5.55
2018-02-02T09:17:39.881Z,4.60
2018-02-02T09:20:07.425Z,4.70
2018-02-02T09:22:34.937Z,4.87
2018-02-02T09:25:02.473Z,3.90
2018-02-02T09:27:30.280Z,3.50
2018-02-02T09:29:57.794Z,4.82
2018-02-02T09:32:26.085Z,3.67
2018-02-02T09:34:54.382Z,3.95
2018-02-02T09:37:21.921Z,3.62
2018-02-02T09:39:50.202Z,4.90
2018-02-02T09:42:17.750Z,3.95
2018-02-02T09:44:46.033Z,3.37
2018-02-02T09:47:14.321Z,4.37
2018-02-02T09:49:42.627Z,4.65
2018-02-02T09:52:10.154Z,13.05
2018-02-02T09:54:38.470Z,10.18
2018-02-02T09:57:05.999Z,10.73
2018-02-02T09:59:33.537Z,4.80
2018-02-02T10:02:01.066Z,12.37
2018-02-02T10:04:28.609Z,5.12
2018-02-02T10:06:56.129Z,7.18
2018-02-02T10:09:25.165Z,4.93
2018-02-02T10:11:52.690Z,20.45
2018-02-02T10:14:20.993Z,4.18
2018-02-02T10:16:48.517Z,4.37
2018-02-02T10:19:16.077Z,4.00
2018-02-02T10:21:43.606Z,3.58
2018-02-02T10:24:11.130Z,4.47
2018-02-02T10:26:38.668Z,4.03
2018-02-02T10:29:06.957Z,4.25
2018-02-02T10:31:35.262Z,4.40
2018-02-02T10:34:02.782Z,4.80
2018-02-02T10:36:31.101Z,4.45
2018-02-02T10:38:58.873Z,4.12
2018-02-02T10:41:26.413Z,4.45
2018-02-02T10:43:53.928Z,3.95
2018-02-02T10:46:21.466Z,4.03
2018-02-02T10:48:48.977Z,4.15
2018-02-02T10:51:17.278Z,5.00
2018-02-02T10:53:44.801Z,3.95
2018-02-02T10:56:13.115Z,4.00
2018-02-02T10:58:40.643Z,3.33
2018-02-02T11:01:14.674Z,4.00
2018-02-02T11:03:48.010Z,3.80
2018-02-02T11:06:15.558Z,4.65
2018-02-02T11:08:43.078Z,3.97
2018-02-02T11:11:11.361Z,3.65
2018-02-02T11:13:38.899Z,4.18
2018-02-02T11:16:06.418Z,4.28
2018-02-02T11:18:33.957Z,3.78
2018-02-02T11:21:01.476Z,5.65
2018-02-02T11:23:29.009Z,4.57
2018-02-02T11:25:56.538Z,5.40
2018-02-02T11:28:24.077Z,5.53
2018-02-02T11:30:52.365Z,4.40
2018-02-02T11:33:19.909Z,5.28
2018-02-02T11:35:48.195Z,5.68
2018-02-02T11:38:16.501Z,6.78
2018-02-02T11:40:44.025Z,9.52
2018-02-02T11:43:12.387Z,6.47
2018-02-02T11:45:39.873Z,6.72
2018-02-02T11:48:08.176Z,6.93
2018-02-02T11:50:35.692Z,5.93
2018-02-02T11:53:03.230Z,5.25
2018-02-02T11:55:30.750Z,4.57
2018-02-02T11:57:58.301Z,4.25
2018-02-02T12:00:26.582Z,5.85
2018-02-02T12:02:54.109Z,5.20
2018-02-02T12:05:21.648Z,5.45
2018-02-02T12:07:49.165Z,5.20
2018-02-02T12:10:16.706Z,4.87
2018-02-02T12:12:44.985Z,4.18
2018-02-02T12:15:13.289Z,4.65
2018-02-02T12:17:40.806Z,4.45
2018-02-02T12:20:08.344Z,4.82
2018-02-02T12:25:44.578Z,8.15
2018-02-02T12:31:33.691Z,13.80
2018-02-02T12:34:01.217Z,12.55
2018-02-02T12:36:44.405Z,8.77
2018-02-02T12:39:11.926Z,9.25
2018-02-02T12:41:39.464Z,8.43
2018-02-02T12:44:07.749Z,7.30
2018-02-02T12:46:36.055Z,6.18
2018-02-02T12:49:05.406Z,12.23
2018-02-02T12:51:33.811Z,22.08
2018-02-02T12:54:02.107Z,18.95
2018-02-02T12:56:29.654Z,16.02
2018-02-02T12:58:57.945Z,19.70
2018-02-02T13:01:25.489Z,8.73
2018-02-02T13:03:53.773Z,7.37
2018-02-02T13:06:21.318Z,11.00
2018-02-02T13:08:49.609Z,11.27
2018-02-02T13:11:18.021Z,7.35
2018-02-02T13:13:45.591Z,10.00
2018-02-02T13:16:13.138Z,8.63
2018-02-02T13:18:40.660Z,6.82
2018-02-02T13:21:08.959Z,9.67
2018-02-02T13:23:36.498Z,5.95
2018-02-02T13:26:04.790Z,8.18
2018-02-02T13:28:33.106Z,8.10
2018-02-02T13:31:00.626Z,7.47
2018-02-02T13:33:28.942Z,6.97
2018-02-02T13:35:56.509Z,9.70
2018-02-02T13:38:24.046Z,7.13
2018-02-02T13:40:51.557Z,7.33
2018-02-02T13:43:19.083Z,6.23
2018-02-02T13:45:46.608Z,5.50
2018-02-02T13:48:14.910Z,5.17
2018-02-02T13:50:42.442Z,5.00
2018-02-02T13:53:10.717Z,5.40
2018-02-02T13:55:39.037Z,4.95
2018-02-02T13:58:06.552Z,5.40
2018-02-02T14:00:34.082Z,4.43
2018-02-02T14:03:01.598Z,4.70
2018-02-02T14:05:29.145Z,7.68
2018-02-02T14:07:57.434Z,5.47
2018-02-02T14:10:25.776Z,4.30
2018-02-02T14:12:53.406Z,4.05
2018-02-02T14:15:20.955Z,6.43
2018-02-02T14:17:48.466Z,4.53
2018-02-02T14:20:16.031Z,5.23
2018-02-02T14:22:43.549Z,4.50
2018-02-02T14:25:11.125Z,4.93
2018-02-02T14:27:38.661Z,5.60
2018-02-02T14:30:06.182Z,5.12
2018-02-02T14:32:33.723Z,5.00
2018-02-02T14:35:01.241Z,4.75
2018-02-02T14:37:28.778Z,4.30
2018-02-02T14:39:57.111Z,5.30
2018-02-02T14:42:24.621Z,4.30
2018-02-02T14:44:53.019Z,5.97
2018-02-02T14:47:24.953Z,5.12
2018-02-02T14:49:53.247Z,5.90
2018-02-02T14:52:21.548Z,5.10
2018-02-02T14:54:49.066Z,5.32
2018-02-02T14:57:17.797Z,6.25
2018-02-02T14:59:45.366Z,5.70
2018-02-02T15:02:12.930Z,5.18
2018-02-02T15:04:40.449Z,6.00
2018-02-02T15:07:08.756Z,5.97
2018-02-02T15:09:36.298Z,5.75
2018-02-02T15:12:03.838Z,5.40
2018-02-02T15:14:32.122Z,6.22
2018-02-02T15:17:00.438Z,5.75
2018-02-02T15:19:27.957Z,5.47
2018-02-02T15:21:56.242Z,5.10
2018-02-02T15:24:24.545Z,5.68
2018-02-02T15:26:52.062Z,6.37
2018-02-02T15:29:19.602Z,6.35
2018-02-02T15:31:47.121Z,5.60
2018-02-02T15:34:14.662Z,6.05
2018-02-02T15:36:42.951Z,7.90
2018-02-02T15:39:10.493Z,6.00
2018-02-02T15:41:38.777Z,6.47
2018-02-02T15:44:07.091Z,5.72
2018-02-02T15:46:34.610Z,6.37
2018-02-02T15:49:02.893Z,6.03
2018-02-02T15:51:31.288Z,6.55
2018-02-02T15:53:59.590Z,6.03
2018-02-02T15:56:27.129Z,5.47
2018-02-02T15:58:54.655Z,6.12
2018-02-02T16:01:22.190Z,6.10
2018-02-02T16:03:49.706Z,5.95
2018-02-02T16:06:17.245Z,5.90
2018-02-02T16:08:45.524Z,4.85
2018-02-02T16:11:13.828Z,6.45
2018-02-02T16:13:41.346Z,6.87
2018-02-02T16:16:08.878Z,6.03
2018-02-02T16:18:36.406Z,6.00
2018-02-02T16:21:03.947Z,6.87
2018-02-02T16:23:32.229Z,5.95
2018-02-02T16:26:00.536Z,6.93
2018-02-02T16:28:28.055Z,7.20
2018-02-02T16:30:56.362Z,6.32
2018-02-02T16:33:23.881Z,6.18
2018-02-02T16:35:51.405Z,6.60
2018-02-02T16:38:18.948Z,5.82
2018-02-02T16:40:46.593Z,6.60
2018-02-02T16:43:14.895Z,6.75
2018-02-02T16:45:42.408Z,5.75
2018-02-02T16:48:09.953Z,7.28
2018-02-02T16:50:37.476Z,5.78
2018-02-02T16:53:12.081Z,4.95
2018-02-02T16:55:40.482Z,5.40
2018-02-02T16:58:10.366Z,5.53
2018-02-02T17:00:37.885Z,5.25
2018-02-02T17:03:05.419Z,6.30
2018-02-02T17:05:32.938Z,5.18
2018-02-02T17:08:01.246Z,7.22
2018-02-02T17:10:28.760Z,4.87
2018-02-02T17:12:56.308Z,5.35
2018-02-02T17:15:23.838Z,5.50
2018-02-02T17:17:51.373Z,5.05
2018-02-02T17:20:18.902Z,5.72
2018-02-02T17:22:46.443Z,5.43
2018-02-02T17:25:15.224Z,4.80
2018-02-02T17:27:42.778Z,5.43
2018-02-02T17:30:10.309Z,5.20
2018-02-02T17:32:37.845Z,4.97
2018-02-02T17:35:06.164Z,4.97
2018-02-02T17:37:33.719Z,5.47
2018-02-02T17:40:01.258Z,5.68
2018-02-02T17:42:29.537Z,5.45
2018-02-02T17:44:57.074Z,5.07
2018-02-02T17:47:25.364Z,6.15
2018-02-02T17:49:53.670Z,6.12
2018-02-02T17:52:21.188Z,6.22
2018-02-02T17:54:48.721Z,5.80
2018-02-02T17:57:16.233Z,6.12
2018-02-02T17:59:43.765Z,5.03
2018-02-02T18:02:12.975Z,6.37
2018-02-02T18:04:41.282Z,6.60
2018-02-02T18:07:08.801Z,4.97
2018-02-02T18:09:36.338Z,6.45
2018-02-02T18:12:03.858Z,6.80
2018-02-02T18:14:31.404Z,5.93
2018-02-02T18:16:58.995Z,6.87
2018-02-02T18:19:26.530Z,6.93
2018-02-02T18:21:54.813Z,7.05
2018-02-02T18:24:23.117Z,7.40
2018-02-02T18:26:50.638Z,6.85
2018-02-02T18:29:18.221Z,6.85
2018-02-02T18:31:46.505Z,7.75
2018-02-02T18:34:14.031Z,6.75
2018-02-02T18:36:41.573Z,8.50
2018-02-02T18:39:09.116Z,7.45
2018-02-02T18:41:36.652Z,7.65
2018-02-02T18:44:04.167Z,5.65
2018-02-02T18:46:31.760Z,6.82
2018-02-02T18:49:00.048Z,7.97
2018-02-02T18:51:27.582Z,7.85
2018-02-02T18:53:55.105Z,7.82
2018-02-02T18:56:22.646Z,7.37
2018-02-02T18:58:50.161Z,6.85
2018-02-02T19:01:17.780Z,7.53
2018-02-02T19:03:45.303Z,6.90
2018-02-02T19:06:13.658Z,6.20
2018-02-02T19:08:41.221Z,6.90
2018-02-02T19:11:08.794Z,6.95
2018-02-02T19:13:36.340Z,7.78
2018-02-02T19:16:03.909Z,6.97
2018-02-02T19:18:31.525Z,7.20
2018-02-02T19:20:59.050Z,7.80
2018-02-02T19:23:27.402Z,7.72
2018-02-02T19:25:54.925Z,8.02
2018-02-02T19:28:22.462Z,8.15
2018-02-02T19:30:50.038Z,7.18
2018-02-02T19:33:17.577Z,7.20
2018-02-02T19:35:45.917Z,8.23
2018-02-02T19:38:13.464Z,7.80
2018-02-02T19:40:40.982Z,8.45
2018-02-02T19:43:09.291Z,8.10
2018-02-02T19:45:36.819Z,8.65
2018-02-02T19:48:05.133Z,7.90
2018-02-02T19:50:32.708Z,8.30
2018-02-02T19:53:00.299Z,6.85
2018-02-02T19:55:28.652Z,8.55
2018-02-02T19:57:56.194Z,8.23
2018-02-02T20:00:23.760Z,8.32
2018-02-02T20:02:51.363Z,8.25
2018-02-02T20:05:18.931Z,9.43
2018-02-02T20:07:46.504Z,7.80
2018-02-02T20:10:14.860Z,8.73
2018-02-02T20:12:42.436Z,7.00
2018-02-02T20:15:10.025Z,7.68
2018-02-02T20:17:37.589Z,7.93
2018-02-02T20:20:05.125Z,7.03
2018-02-02T20:22:32.650Z,7.45
2018-02-02T20:25:00.236Z,8.18
2018-02-02T20:27:27.762Z,6.85
2018-02-02T20:29:55.297Z,6.32
2018-02-02T20:32:22.873Z,7.32
2018-02-02T20:34:50.445Z,8.15
2018-02-02T20:37:17.968Z,7.43
2018-02-02T20:39:46.321Z,7.40
2018-02-02T20:42:13.838Z,7.80
2018-02-02T20:44:41.387Z,7.65
2018-02-02T20:47:08.960Z,6.90
2018-02-02T20:49:36.532Z,8.52
2018-02-02T20:52:04.074Z,7.43
2018-02-02T20:54:31.598Z,7.15
2018-02-02T20:56:59.185Z,7.57
2018-02-02T20:59:26.711Z,6.95
2018-02-02T21:01:54.248Z,8.30
2018-02-02T21:04:21.821Z,8.07
2018-02-02T21:06:49.417Z,7.55
2018-02-02T21:09:17.774Z,7.70
2018-02-02T21:11:45.302Z,7.90
2018-02-02T21:14:12.874Z,6.82
2018-02-02T21:16:40.460Z,8.70
2018-02-02T21:19:07.973Z,7.47
2018-02-02T21:21:35.567Z,7.97
2018-02-02T21:24:03.150Z,7.03
2018-02-02T21:26:30.694Z,7.47
2018-02-02T21:28:58.268Z,6.47
2018-02-02T21:31:25.869Z,8.27
2018-02-02T21:33:53.441Z,7.45
2018-02-02T21:36:21.057Z,8.35
2018-02-02T21:38:48.632Z,8.20
2018-02-02T21:41:16.917Z,8.77
2018-02-02T21:43:45.335Z,8.77
2018-02-02T21:46:12.837Z,8.40
2018-02-02T21:48:40.377Z,8.18
2018-02-02T21:51:07.898Z,8.45
2018-02-02T21:53:35.439Z,8.50
2018-02-02T21:56:03.789Z,9.40
2018-02-02T21:58:31.337Z,8.90
2018-02-02T22:00:58.857Z,9.07
2018-02-02T22:03:27.168Z,9.25
2018-02-02T22:05:54.740Z,8.10
2018-02-02T22:08:22.277Z,8.15
2018-02-02T22:10:49.806Z,8.73
2018-02-02T22:13:18.110Z,8.05
2018-02-02T22:15:45.689Z,7.80
2018-02-02T22:18:13.233Z,8.60
2018-02-02T22:20:40.752Z,9.18
2018-02-02T22:23:08.294Z,9.27
2018-02-02T22:25:35.817Z,8.90
2018-02-02T22:28:04.177Z,9.50
2018-02-02T22:30:32.465Z,9.60
2018-02-02T22:33:00.011Z,10.10
2018-02-02T22:35:28.349Z,11.27
2018-02-02T22:37:55.906Z,10.05
2018-02-02T22:40:23.417Z,9.70
2018-02-02T22:42:51.791Z,8.32
2018-02-02T22:45:20.105Z,9.10
2018-02-02T22:47:47.676Z,9.20
2018-02-02T22:50:15.213Z,9.32
2018-02-02T22:52:42.736Z,8.43
2018-02-02T22:55:10.272Z,9.93
2018-02-02T22:57:37.834Z,8.70
2018-02-02T23:00:05.373Z,7.90
2018-02-02T23:02:32.888Z,9.82
2018-02-02T23:05:00.494Z,9.48
2018-02-02T23:07:28.064Z,9.43
2018-02-02T23:09:55.601Z,8.82
2018-02-02T23:12:23.941Z,9.90
2018-02-02T23:14:51.503Z,9.77
2018-02-02T23:17:19.050Z,8.43
2018-02-02T23:19:46.569Z,8.82
2018-02-02T23:22:14.104Z,7.77
2018-02-02T23:24:42.440Z,8.40
2018-02-02T23:27:09.978Z,7.50
2018-02-02T23:29:37.504Z,8.65
2018-02-02T23:32:05.805Z,7.82
2018-02-02T23:34:33.334Z,8.27
2018-02-02T23:37:00.889Z,8.85
2018-02-02T23:39:28.409Z,8.15
2018-02-02T23:41:55.933Z,8.50
2018-02-02T23:44:24.240Z,8.52
2018-02-02T23:46:51.778Z,10.10
2018-02-02T23:49:20.085Z,8.45
2018-02-02T23:51:47.609Z,9.05
2018-02-02T23:54:15.914Z,8.68
2018-02-02T23:56:43.430Z,9.02
2018-02-02T23:59:10.974Z,9.10
